createdAt,value
2023-05-07T00:00:54.390Z,6.00
2023-05-07T00:01:54.427Z,6.20
2023-05-07T00:02:54.525Z,5.80
2023-05-07T00:03:54.621Z,6.10
2023-05-07T00:04:54.617Z,5.70
2023-05-07T00:05:54.480Z,6.20
2023-05-07T00:06:54.478Z,5.80
2023-05-07T00:07:54.490Z,6.40
2023-05-07T00:08:54.507Z,5.80
2023-05-07T00:09:54.522Z,5.90
2023-05-07T00:10:54.643Z,5.90
2023-05-07T00:11:54.561Z,5.80
2023-05-07T00:12:54.607Z,5.90
2023-05-07T00:13:54.582Z,6.10
2023-05-07T00:14:54.612Z,6.20
2023-05-07T00:15:54.745Z,5.80
2023-05-07T00:16:54.750Z,5.60
2023-05-07T00:17:54.799Z,5.70
2023-05-07T00:18:54.675Z,5.40
2023-05-07T00:19:54.677Z,5.80
2023-05-07T00:20:54.799Z,5.70
2023-05-07T00:21:54.715Z,5.60
2023-05-07T00:22:54.728Z,5.70
2023-05-07T00:23:54.757Z,5.90
2023-05-07T00:24:54.757Z,5.90
2023-05-07T00:25:54.874Z,5.60
2023-05-07T00:26:54.785Z,5.50
2023-05-07T00:27:54.804Z,5.70
2023-05-07T00:28:54.813Z,5.60
2023-05-07T00:29:54.839Z,5.80
2023-05-07T00:30:54.952Z,5.80
2023-05-07T00:31:54.902Z,5.60
2023-05-07T00:32:54.962Z,5.70
2023-05-07T00:33:54.989Z,5.70
2023-05-07T00:34:54.908Z,5.30
2023-05-07T00:35:55.032Z,5.70
2023-05-07T00:36:54.943Z,5.80
2023-05-07T00:37:54.960Z,5.80
2023-05-07T00:38:54.987Z,5.50
2023-05-07T00:39:54.983Z,5.50
2023-05-07T00:40:55.006Z,5.70
2023-05-07T00:41:55.118Z,5.80
2023-05-07T00:42:55.038Z,5.60
2023-05-07T00:43:55.062Z,5.60
2023-05-07T00:44:55.061Z,5.40
2023-05-07T00:45:55.108Z,5.40
2023-05-07T00:46:55.200Z,5.50
2023-05-07T00:47:55.129Z,5.60
2023-05-07T00:48:55.137Z,5.30
2023-05-07T00:49:55.231Z,5.50
2023-05-07T00:50:55.156Z,5.40
2023-05-07T00:51:55.168Z,5.20
2023-05-07T00:52:55.292Z,5.40
2023-05-07T00:53:55.209Z,5.50
2023-05-07T00:54:55.228Z,5.30
2023-05-07T00:55:55.236Z,5.50
2023-05-07T00:56:55.259Z,5.50
2023-05-07T00:57:55.274Z,5.80
2023-05-07T00:58:55.394Z,5.50
2023-05-07T00:59:55.307Z,5.40
2023-05-07T01:00:55.371Z,5.50
2023-05-07T01:01:55.323Z,5.60
2023-05-07T01:02:55.379Z,5.20
2023-05-07T01:03:55.480Z,5.30
2023-05-07T01:04:55.377Z,5.20
2023-05-07T01:05:55.479Z,5.40
2023-05-07T01:06:55.408Z,5.40
2023-05-07T01:07:55.416Z,5.30
2023-05-07T01:08:55.445Z,5.20
2023-05-07T01:09:55.557Z,5.60
2023-05-07T01:10:55.471Z,5.50
2023-05-07T01:11:55.479Z,5.30
2023-05-07T01:12:55.535Z,5.20
2023-05-07T01:13:55.521Z,5.40
2023-05-07T01:14:55.537Z,5.60
2023-05-07T01:15:55.654Z,5.10
2023-05-07T01:16:55.581Z,5.40
2023-05-07T01:17:55.656Z,5.40
2023-05-07T01:18:55.606Z,5.00
2023-05-07T01:19:55.637Z,5.40
2023-05-07T01:20:55.624Z,5.20
2023-05-07T01:21:55.826Z,5.00
2023-05-07T01:22:55.656Z,5.30
2023-05-07T01:23:55.694Z,5.30
2023-05-07T01:24:55.693Z,5.30
2023-05-07T01:25:55.701Z,5.30
2023-05-07T01:26:55.725Z,5.00
2023-05-07T01:27:55.836Z,5.10
2023-05-07T01:28:55.753Z,5.40
2023-05-07T01:29:55.758Z,5.30
2023-05-07T01:30:55.780Z,5.20
2023-05-07T01:31:55.856Z,5.40
2023-05-07T01:32:55.938Z,5.20
2023-05-07T01:33:55.845Z,5.30
2023-05-07T01:34:55.841Z,5.40
2023-05-07T01:35:55.856Z,5.30
2023-05-07T01:36:55.865Z,5.10
2023-05-07T01:37:55.980Z,5.20
2023-05-07T01:38:55.995Z,5.10
2023-05-07T01:39:55.922Z,5.30
2023-05-07T01:40:55.924Z,5.10
2023-05-07T01:41:55.943Z,5.00
2023-05-07T01:42:55.954Z,5.10
2023-05-07T01:43:56.078Z,4.80
2023-05-07T01:44:55.993Z,5.30
2023-05-07T01:45:56.026Z,5.30
2023-05-07T01:46:56.024Z,5.00
2023-05-07T01:47:56.089Z,5.10
2023-05-07T01:48:56.153Z,5.00
2023-05-07T01:49:56.072Z,5.20
2023-05-07T01:50:56.080Z,5.30
2023-05-07T01:51:56.092Z,5.00
2023-05-07T01:52:56.116Z,5.30
2023-05-07T01:53:56.248Z,5.30
2023-05-07T01:54:56.143Z,4.90
2023-05-07T01:55:56.156Z,5.00
2023-05-07T01:56:56.181Z,4.90
2023-05-07T01:57:56.201Z,5.10
2023-05-07T01:58:56.222Z,5.10
2023-05-07T01:59:56.326Z,5.00
2023-05-07T02:00:56.351Z,4.90
2023-05-07T02:01:56.272Z,4.90
2023-05-07T02:02:56.359Z,5.10
2023-05-07T02:03:56.439Z,5.30
2023-05-07T02:04:56.290Z,5.20
2023-05-07T02:05:56.408Z,5.40
2023-05-07T02:06:56.328Z,5.10
2023-05-07T02:07:56.339Z,5.40
2023-05-07T02:08:56.353Z,5.10
2023-05-07T02:09:56.468Z,5.50
2023-05-07T02:10:56.455Z,5.40
2023-05-07T02:11:56.515Z,5.20
2023-05-07T02:12:56.481Z,5.50
2023-05-07T02:13:56.431Z,5.10
2023-05-07T02:14:56.452Z,5.20
2023-05-07T02:15:56.504Z,5.30
2023-05-07T02:16:56.622Z,4.90
2023-05-07T02:17:56.551Z,5.40
2023-05-07T02:18:57.122Z,5.10
2023-05-07T02:19:56.538Z,5.10
2023-05-07T02:20:56.540Z,5.00
2023-05-07T02:21:56.672Z,4.70
2023-05-07T02:22:56.575Z,5.20
2023-05-07T02:23:56.585Z,5.00
2023-05-07T02:24:56.613Z,5.10
2023-05-07T02:25:56.718Z,4.80
2023-05-07T02:26:56.754Z,5.20
2023-05-07T02:27:56.653Z,5.20
2023-05-07T02:28:56.678Z,4.90
2023-05-07T02:29:56.681Z,5.30
2023-05-07T02:30:56.727Z,4.90
2023-05-07T02:31:56.807Z,5.20
2023-05-07T02:32:56.883Z,4.90
2023-05-07T02:33:56.756Z,5.20
2023-05-07T02:34:56.765Z,5.10
2023-05-07T02:35:56.785Z,5.30
2023-05-07T02:36:56.794Z,5.10
2023-05-07T02:37:56.814Z,5.00
2023-05-07T02:38:56.918Z,5.00
2023-05-07T02:39:56.840Z,5.10
2023-05-07T02:40:56.868Z,5.30
2023-05-07T02:41:56.973Z,5.00
2023-05-07T02:42:56.901Z,5.00
2023-05-07T02:43:57.000Z,5.00
2023-05-07T02:44:56.917Z,4.80
2023-05-07T02:45:56.959Z,5.30
2023-05-07T02:46:56.949Z,5.00
2023-05-07T02:47:56.996Z,5.00
2023-05-07T02:48:56.977Z,4.90
2023-05-07T02:49:57.087Z,5.00
2023-05-07T02:50:57.001Z,5.20
2023-05-07T02:51:57.025Z,5.20
2023-05-07T02:52:57.039Z,4.80
2023-05-07T02:53:57.064Z,5.10
2023-05-07T02:54:57.079Z,5.10
2023-05-07T02:55:57.185Z,5.20
2023-05-07T02:56:57.093Z,5.00
2023-05-07T02:57:57.213Z,4.80
2023-05-07T02:58:57.136Z,5.00
2023-05-07T02:59:57.150Z,5.00
2023-05-07T03:00:57.168Z,5.10
2023-05-07T03:01:57.277Z,5.20
2023-05-07T03:02:57.406Z,5.10
2023-05-07T03:03:57.280Z,4.70
2023-05-07T03:04:57.222Z,4.80
2023-05-07T03:05:57.240Z,5.00
2023-05-07T03:06:57.253Z,5.00
2023-05-07T03:07:57.360Z,4.80
2023-05-07T03:08:57.680Z,5.00
2023-05-07T03:09:57.292Z,4.70
2023-05-07T03:10:57.310Z,5.30
2023-05-07T03:11:57.368Z,5.10
2023-05-07T03:12:57.361Z,4.70
2023-05-07T03:13:57.473Z,4.80
2023-05-07T03:14:57.397Z,4.70
2023-05-07T03:15:57.544Z,5.00
2023-05-07T03:16:57.409Z,5.00
2023-05-07T03:17:57.446Z,5.00
2023-05-07T03:18:57.675Z,4.80
2023-05-07T03:19:57.459Z,4.90
2023-05-07T03:20:57.571Z,4.90
2023-05-07T03:21:57.481Z,4.70
2023-05-07T03:22:57.508Z,5.10
2023-05-07T03:23:57.505Z,5.00
2023-05-07T03:24:57.618Z,4.90
2023-05-07T03:25:57.535Z,4.90
2023-05-07T03:26:57.556Z,4.90
2023-05-07T03:27:57.571Z,5.00
2023-05-07T03:28:57.581Z,4.60
2023-05-07T03:29:57.720Z,5.20
2023-05-07T03:30:58.068Z,5.00
2023-05-07T03:31:57.641Z,5.20
2023-05-07T03:32:57.708Z,5.00
2023-05-07T03:33:57.666Z,4.90
2023-05-07T03:34:57.677Z,5.20
2023-05-07T03:35:57.789Z,5.10
2023-05-07T03:36:57.708Z,5.20
2023-05-07T03:37:57.723Z,5.10
2023-05-07T03:38:57.743Z,5.00
2023-05-07T03:39:57.764Z,5.20
2023-05-07T03:40:57.768Z,5.00
2023-05-07T03:41:57.877Z,5.10
2023-05-07T03:42:57.798Z,5.30
2023-05-07T03:43:57.807Z,4.90
2023-05-07T03:44:57.841Z,4.90
2023-05-07T03:45:58.018Z,4.80
2023-05-07T03:46:57.969Z,4.90
2023-05-07T03:47:57.944Z,5.00
2023-05-07T03:48:57.879Z,4.90
2023-05-07T03:49:57.912Z,5.00
2023-05-07T03:50:57.914Z,5.10
2023-05-07T03:51:58.043Z,5.00
2023-05-07T03:52:57.944Z,5.00
2023-05-07T03:53:57.988Z,5.10
2023-05-07T03:54:57.976Z,4.80
2023-05-07T03:55:58.008Z,5.00
2023-05-07T03:56:58.613Z,4.70
2023-05-07T03:57:58.129Z,5.20
2023-05-07T03:58:58.053Z,5.00
2023-05-07T03:59:58.062Z,5.20
2023-05-07T04:00:58.075Z,5.00
2023-05-07T04:01:58.152Z,5.10
2023-05-07T04:02:58.183Z,5.30
2023-05-07T04:03:58.363Z,5.30
2023-05-07T04:04:58.144Z,5.40
2023-05-07T04:05:58.160Z,4.80
2023-05-07T04:06:58.169Z,5.10
2023-05-07T04:07:58.181Z,5.10
2023-05-07T04:08:58.295Z,4.90
2023-05-07T04:09:58.213Z,4.90
2023-05-07T04:10:58.222Z,5.10
2023-05-07T04:11:58.238Z,5.00
2023-05-07T04:12:58.333Z,4.80
2023-05-07T04:13:58.275Z,4.80
2023-05-07T04:14:58.379Z,5.10
2023-05-07T04:15:58.303Z,4.80
2023-05-07T04:16:58.352Z,5.20
2023-05-07T04:17:58.457Z,5.10
2023-05-07T04:18:58.356Z,4.90
2023-05-07T04:19:58.358Z,4.80
2023-05-07T04:20:58.483Z,5.00
2023-05-07T04:21:58.402Z,5.20
2023-05-07T04:22:58.414Z,4.90
2023-05-07T04:23:58.440Z,4.90
2023-05-07T04:24:58.473Z,5.10
2023-05-07T04:25:58.558Z,5.00
2023-05-07T04:26:58.471Z,4.90
2023-05-07T04:27:58.475Z,4.70
2023-05-07T04:28:58.501Z,4.80
2023-05-07T04:29:58.518Z,5.00
2023-05-07T04:30:58.537Z,4.90
2023-05-07T04:31:58.688Z,4.70
2023-05-07T04:32:58.611Z,4.90
2023-05-07T04:33:58.679Z,4.90
2023-05-07T04:34:58.596Z,4.90
2023-05-07T04:35:58.610Z,5.00
2023-05-07T04:36:58.715Z,4.80
2023-05-07T04:37:58.638Z,4.80
2023-05-07T04:38:58.644Z,4.80
2023-05-07T04:39:58.666Z,4.80
2023-05-07T04:40:58.680Z,4.70
2023-05-07T04:41:58.689Z,4.90
2023-05-07T04:42:58.830Z,4.60
2023-05-07T04:43:58.727Z,4.80
2023-05-07T04:44:58.743Z,5.30
2023-05-07T04:45:58.797Z,4.60
2023-05-07T04:46:58.765Z,4.80
2023-05-07T04:47:58.921Z,5.20
2023-05-07T04:48:58.813Z,4.90
2023-05-07T04:49:58.904Z,5.00
2023-05-07T04:50:58.856Z,4.70
2023-05-07T04:51:58.849Z,4.70
2023-05-07T04:52:58.955Z,5.00
2023-05-07T04:53:58.867Z,4.70
2023-05-07T04:54:58.893Z,4.90
2023-05-07T04:55:58.931Z,4.80
2023-05-07T04:56:58.922Z,5.00
2023-05-07T04:57:58.930Z,5.00
2023-05-07T04:58:59.068Z,4.90
2023-05-07T04:59:58.966Z,5.10
2023-05-07T05:00:59.022Z,4.90
2023-05-07T05:01:59.149Z,5.30
2023-05-07T05:02:59.116Z,4.90
2023-05-07T05:03:59.161Z,5.00
2023-05-07T05:04:59.042Z,5.10
2023-05-07T05:05:59.160Z,5.00
2023-05-07T05:06:59.080Z,5.10
2023-05-07T05:07:59.086Z,5.00
2023-05-07T05:08:59.111Z,4.90
2023-05-07T05:09:59.228Z,4.90
2023-05-07T05:10:59.147Z,5.10
2023-05-07T05:11:59.147Z,4.90
2023-05-07T05:12:59.269Z,4.90
2023-05-07T05:13:59.188Z,4.90
2023-05-07T05:14:59.191Z,5.10
2023-05-07T05:15:59.519Z,5.20
2023-05-07T05:16:59.230Z,5.00
2023-05-07T05:17:59.283Z,4.80
2023-05-07T05:18:59.262Z,4.90
2023-05-07T05:19:59.273Z,5.10
2023-05-07T05:20:59.290Z,5.10
2023-05-07T05:21:59.508Z,5.30
2023-05-07T05:22:59.320Z,4.90
2023-05-07T05:23:59.360Z,5.00
2023-05-07T05:24:59.363Z,5.00
2023-05-07T05:25:59.368Z,5.00
2023-05-07T05:26:59.475Z,4.90
2023-05-07T05:27:59.409Z,4.80
2023-05-07T05:28:59.405Z,4.90
2023-05-07T05:29:59.421Z,4.90
2023-05-07T05:30:59.440Z,4.80
2023-05-07T05:31:59.561Z,4.80
2023-05-07T05:32:59.649Z,4.90
2023-05-07T05:33:59.481Z,5.30
2023-05-07T05:34:59.504Z,5.00
2023-05-07T05:35:59.524Z,4.90
2023-05-07T05:36:59.533Z,4.70
2023-05-07T05:37:59.639Z,5.00
2023-05-07T05:38:59.656Z,4.90
2023-05-07T05:39:59.600Z,4.70
2023-05-07T05:40:59.598Z,5.30
2023-05-07T05:41:59.604Z,5.00
2023-05-07T05:42:59.632Z,4.90
2023-05-07T05:43:59.729Z,5.40
2023-05-07T05:44:59.654Z,4.90
2023-05-07T05:45:59.717Z,5.30
2023-05-07T05:46:59.676Z,5.00
2023-05-07T05:47:59.718Z,4.80
2023-05-07T05:48:59.808Z,4.90
2023-05-07T05:49:59.733Z,5.20
2023-05-07T05:50:59.745Z,5.20
2023-05-07T05:51:59.753Z,5.00
2023-05-07T05:53:00.460Z,5.20
2023-05-07T05:53:59.891Z,4.90
2023-05-07T05:54:59.902Z,5.20
2023-05-07T05:55:59.821Z,5.00
2023-05-07T05:56:59.827Z,5.20
2023-05-07T05:57:59.845Z,5.10
2023-05-07T05:58:59.928Z,5.10
2023-05-07T05:59:59.885Z,5.00
2023-05-07T06:00:59.995Z,5.10
2023-05-07T06:01:59.931Z,4.90
2023-05-07T06:02:59.947Z,5.10
2023-05-07T06:03:59.933Z,4.90
2023-05-07T06:04:59.985Z,5.10
2023-05-07T06:06:00.078Z,5.10
2023-05-07T06:06:59.985Z,5.20
2023-05-07T06:07:59.999Z,5.10
2023-05-07T06:09:00.017Z,5.00
2023-05-07T06:10:00.132Z,5.20
2023-05-07T06:11:00.052Z,5.30
2023-05-07T06:12:00.983Z,5.00
2023-05-07T06:13:00.112Z,5.00
2023-05-07T06:14:00.140Z,5.30
2023-05-07T06:15:00.132Z,5.10
2023-05-07T06:16:00.177Z,5.00
2023-05-07T06:17:00.274Z,5.10
2023-05-07T06:18:00.271Z,4.70
2023-05-07T06:19:00.171Z,5.20
2023-05-07T06:20:00.171Z,5.20
2023-05-07T06:21:00.201Z,5.10
2023-05-07T06:22:00.203Z,5.10
2023-05-07T06:23:00.315Z,5.00
2023-05-07T06:24:00.233Z,5.30
2023-05-07T06:25:00.256Z,4.70
2023-05-07T06:26:00.356Z,5.00
2023-05-07T06:27:00.289Z,5.10
2023-05-07T06:28:00.303Z,5.20
2023-05-07T06:29:00.418Z,5.00
2023-05-07T06:30:00.347Z,5.20
2023-05-07T06:31:00.338Z,4.80
2023-05-07T06:32:00.408Z,4.90
2023-05-07T06:33:00.461Z,5.00
2023-05-07T06:34:00.394Z,5.20
2023-05-07T06:35:00.498Z,5.00
2023-05-07T06:36:00.414Z,5.10
2023-05-07T06:37:00.430Z,5.30
2023-05-07T06:38:00.448Z,4.80
2023-05-07T06:39:00.457Z,5.40
2023-05-07T06:40:00.690Z,5.00
2023-05-07T06:41:00.601Z,5.30
2023-05-07T06:42:00.609Z,5.10
2023-05-07T06:43:00.532Z,4.90
2023-05-07T06:44:00.559Z,5.40
2023-05-07T06:45:00.576Z,5.10
2023-05-07T06:46:00.623Z,5.10
2023-05-07T06:47:00.685Z,5.20
2023-05-07T06:48:00.656Z,4.90
2023-05-07T06:49:00.614Z,5.10
2023-05-07T06:50:00.633Z,5.20
2023-05-07T06:51:00.647Z,5.10
2023-05-07T06:52:00.661Z,5.00
2023-05-07T06:53:00.772Z,5.50
2023-05-07T06:54:00.698Z,5.10
2023-05-07T06:55:00.734Z,5.10
2023-05-07T06:56:00.733Z,5.10
2023-05-07T06:57:00.750Z,5.20
2023-05-07T06:58:00.936Z,5.30
2023-05-07T06:59:00.758Z,4.90
2023-05-07T07:00:00.778Z,5.00
2023-05-07T07:01:00.839Z,4.90
2023-05-07T07:02:00.837Z,5.20
2023-05-07T07:03:00.906Z,5.30
2023-05-07T07:04:00.940Z,5.00
2023-05-07T07:05:00.895Z,5.10
2023-05-07T07:06:00.891Z,5.10
2023-05-07T07:07:00.876Z,5.30
2023-05-07T07:08:00.896Z,5.20
2023-05-07T07:09:00.948Z,5.00
2023-05-07T07:10:01.040Z,5.10
2023-05-07T07:11:00.935Z,4.70
2023-05-07T07:12:00.967Z,4.80
2023-05-07T07:13:00.992Z,5.20
2023-05-07T07:14:01.001Z,5.30
2023-05-07T07:15:01.098Z,4.90
2023-05-07T07:16:01.127Z,4.90
2023-05-07T07:17:01.032Z,5.30
2023-05-07T07:18:01.098Z,5.20
2023-05-07T07:19:01.075Z,5.00
2023-05-07T07:20:01.074Z,5.00
2023-05-07T07:21:01.191Z,5.30
2023-05-07T07:22:01.115Z,4.90
2023-05-07T07:23:01.141Z,5.20
2023-05-07T07:24:01.134Z,4.80
2023-05-07T07:25:01.144Z,5.10
2023-05-07T07:26:01.261Z,5.20
2023-05-07T07:27:01.182Z,4.90
2023-05-07T07:28:01.240Z,5.10
2023-05-07T07:29:01.217Z,4.60
2023-05-07T07:30:01.325Z,4.90
2023-05-07T07:31:01.262Z,5.00
2023-05-07T07:32:01.443Z,5.10
2023-05-07T07:33:01.347Z,4.90
2023-05-07T07:34:01.287Z,4.80
2023-05-07T07:35:01.300Z,5.10
2023-05-07T07:36:01.305Z,5.20
2023-05-07T07:37:01.423Z,5.00
2023-05-07T07:38:01.345Z,4.90
2023-05-07T07:39:01.350Z,4.90
2023-05-07T07:40:01.470Z,5.20
2023-05-07T07:41:01.393Z,4.80
2023-05-07T07:42:01.511Z,4.70
2023-05-07T07:43:01.410Z,5.00
2023-05-07T07:44:01.432Z,5.20
2023-05-07T07:45:01.461Z,5.30
2023-05-07T07:46:01.486Z,5.10
2023-05-07T07:47:01.619Z,4.80
2023-05-07T07:48:01.531Z,4.90
2023-05-07T07:49:01.503Z,4.90
2023-05-07T07:50:01.530Z,4.90
2023-05-07T07:51:01.588Z,4.70
2023-05-07T07:52:01.560Z,5.00
2023-05-07T07:53:01.671Z,5.00
2023-05-07T07:54:01.585Z,4.70
2023-05-07T07:55:01.589Z,4.80
2023-05-07T07:56:02.951Z,4.70
2023-05-07T07:57:01.617Z,4.80
2023-05-07T07:58:01.647Z,4.60
2023-05-07T07:59:01.771Z,4.70
2023-05-07T08:00:01.665Z,4.70
2023-05-07T08:01:01.688Z,5.00
2023-05-07T08:02:01.909Z,4.80
2023-05-07T08:03:01.950Z,4.80
2023-05-07T08:04:02.139Z,4.80
2023-05-07T08:05:01.746Z,4.80
2023-05-07T08:06:01.772Z,5.00
2023-05-07T08:07:01.775Z,4.90
2023-05-07T08:08:01.792Z,4.80
2023-05-07T08:09:01.798Z,5.00
2023-05-07T08:10:01.911Z,4.80
2023-05-07T08:11:01.841Z,5.00
2023-05-07T08:12:01.853Z,4.80
2023-05-07T08:13:01.927Z,4.80
2023-05-07T08:14:01.876Z,4.90
2023-05-07T08:15:01.889Z,4.80
2023-05-07T08:16:02.012Z,4.80
2023-05-07T08:17:02.011Z,4.70
2023-05-07T08:18:02.075Z,4.60
2023-05-07T08:19:01.959Z,4.60
2023-05-07T08:20:01.975Z,4.90
2023-05-07T08:21:01.980Z,4.90
2023-05-07T08:22:02.095Z,4.90
2023-05-07T08:23:02.089Z,4.50
2023-05-07T08:24:02.038Z,4.90
2023-05-07T08:25:02.043Z,4.60
2023-05-07T08:26:02.068Z,4.70
2023-05-07T08:27:02.077Z,5.20
2023-05-07T08:28:02.187Z,4.60
2023-05-07T08:29:02.109Z,4.90
2023-05-07T08:30:02.122Z,4.80
2023-05-07T08:31:02.271Z,4.70
2023-05-07T08:32:02.147Z,4.60
2023-05-07T08:33:02.207Z,4.90
2023-05-07T08:34:02.381Z,5.10
2023-05-07T08:35:02.198Z,4.70
2023-05-07T08:36:02.213Z,4.50
2023-05-07T08:37:04.482Z,5.20
2023-05-07T08:38:02.239Z,4.80
2023-05-07T08:39:02.262Z,4.60
2023-05-07T08:40:02.373Z,5.10
2023-05-07T08:41:02.307Z,4.90
2023-05-07T08:42:02.309Z,4.70
2023-05-07T08:43:02.320Z,4.80
2023-05-07T08:44:02.333Z,4.80
2023-05-07T08:45:02.348Z,4.90
2023-05-07T08:46:02.493Z,5.10
2023-05-07T08:47:02.389Z,5.20
2023-05-07T08:48:02.424Z,4.90
2023-05-07T08:49:02.395Z,4.90
2023-05-07T08:50:02.514Z,5.10
2023-05-07T08:51:02.527Z,5.00
2023-05-07T08:52:02.469Z,4.70
2023-05-07T08:53:02.463Z,5.40
2023-05-07T08:54:02.479Z,5.10
2023-05-07T08:55:02.489Z,5.10
2023-05-07T08:56:02.811Z,5.00
2023-05-07T08:57:02.525Z,4.90
2023-05-07T08:58:02.560Z,5.00
2023-05-07T08:59:02.558Z,5.00
2023-05-07T09:00:02.565Z,5.00
2023-05-07T09:01:02.673Z,4.90
2023-05-07T09:02:02.618Z,5.20
2023-05-07T09:03:02.641Z,5.20
2023-05-07T09:04:02.774Z,5.20
2023-05-07T09:05:02.638Z,4.90
2023-05-07T09:06:02.769Z,5.00
2023-05-07T09:07:02.661Z,5.20
2023-05-07T09:08:02.676Z,5.20
2023-05-07T09:09:02.711Z,5.40
2023-05-07T09:10:02.711Z,5.10
2023-05-07T09:11:02.733Z,5.00
2023-05-07T09:12:02.843Z,5.20
2023-05-07T09:13:02.765Z,5.20
2023-05-07T09:14:02.765Z,5.30
2023-05-07T09:15:02.782Z,5.40
2023-05-07T09:16:02.834Z,5.20
2023-05-07T09:17:02.812Z,5.20
2023-05-07T09:18:02.961Z,5.10
2023-05-07T09:19:02.865Z,5.50
2023-05-07T09:20:02.862Z,5.20
2023-05-07T09:21:02.869Z,5.50
2023-05-07T09:22:02.919Z,5.20
2023-05-07T09:23:02.918Z,4.90
2023-05-07T09:24:03.021Z,5.20
2023-05-07T09:25:02.939Z,5.30
2023-05-07T09:26:02.957Z,5.10
2023-05-07T09:27:02.972Z,5.10
2023-05-07T09:28:02.973Z,5.10
2023-05-07T09:29:03.103Z,4.70
2023-05-07T09:30:03.005Z,5.10
2023-05-07T09:31:03.025Z,5.10
2023-05-07T09:32:03.045Z,5.60
2023-05-07T09:33:03.153Z,4.90
2023-05-07T09:34:03.168Z,5.10
2023-05-07T09:35:03.085Z,5.10
2023-05-07T09:36:03.093Z,5.20
2023-05-07T09:37:03.116Z,5.00
2023-05-07T09:38:04.492Z,5.30
2023-05-07T09:39:03.147Z,5.20
2023-05-07T09:40:03.256Z,5.20
2023-05-07T09:41:03.166Z,5.10
2023-05-07T09:42:03.184Z,5.70
2023-05-07T09:43:03.195Z,5.20
2023-05-07T09:44:03.220Z,5.00
2023-05-07T09:45:03.332Z,5.20
2023-05-07T09:46:03.287Z,5.30
2023-05-07T09:47:03.262Z,5.10
2023-05-07T09:48:03.322Z,5.20
2023-05-07T09:49:03.291Z,5.40
2023-05-07T09:50:03.704Z,5.20
2023-05-07T09:51:03.426Z,5.20
2023-05-07T09:52:03.332Z,5.60
2023-05-07T09:53:03.362Z,5.10
2023-05-07T09:54:03.393Z,5.20
2023-05-07T09:55:03.379Z,5.30
2023-05-07T09:56:05.165Z,5.50
2023-05-07T09:57:03.413Z,5.30
2023-05-07T09:58:03.421Z,5.10
2023-05-07T09:59:03.438Z,5.50
2023-05-07T10:00:03.447Z,5.20
2023-05-07T10:01:03.591Z,5.60
2023-05-07T10:02:05.026Z,5.10
2023-05-07T10:03:03.577Z,5.40
2023-05-07T10:04:03.615Z,5.20
2023-05-07T10:05:03.534Z,5.40
2023-05-07T10:06:03.535Z,5.30
2023-05-07T10:07:03.656Z,5.20
2023-05-07T10:08:04.827Z,5.40
2023-05-07T10:09:03.586Z,5.10
2023-05-07T10:10:03.704Z,5.70
2023-05-07T10:11:03.616Z,5.60
2023-05-07T10:12:03.724Z,5.30
2023-05-07T10:13:03.700Z,5.50
2023-05-07T10:14:05.014Z,5.30
2023-05-07T10:15:03.674Z,5.30
2023-05-07T10:16:03.681Z,5.70
2023-05-07T10:17:03.837Z,5.50
2023-05-07T10:18:03.822Z,5.40
2023-05-07T10:19:03.729Z,5.40
2023-05-07T10:20:04.518Z,5.70
2023-05-07T10:21:03.771Z,5.40
2023-05-07T10:22:03.785Z,5.20
2023-05-07T10:23:03.892Z,5.40
2023-05-07T10:24:03.808Z,5.80
2023-05-07T10:25:03.823Z,5.70
2023-05-07T10:26:03.938Z,5.80
2023-05-07T10:27:03.854Z,5.30
2023-05-07T10:28:03.959Z,5.30
2023-05-07T10:29:03.874Z,5.70
2023-05-07T10:30:03.890Z,5.60
2023-05-07T10:31:03.970Z,5.60
2023-05-07T10:32:03.934Z,5.40
2023-05-07T10:33:03.971Z,5.50
2023-05-07T10:34:04.050Z,5.40
2023-05-07T10:35:03.966Z,5.20
2023-05-07T10:36:03.988Z,5.80
2023-05-07T10:37:03.995Z,5.60
2023-05-07T10:38:04.016Z,5.80
2023-05-07T10:39:04.024Z,5.30
2023-05-07T10:40:04.139Z,5.30
2023-05-07T10:41:04.054Z,5.50
2023-05-07T10:42:04.169Z,5.20
2023-05-07T10:43:04.082Z,5.20
2023-05-07T10:44:04.096Z,5.80
2023-05-07T10:45:04.215Z,5.30
2023-05-07T10:46:04.193Z,5.80
2023-05-07T10:47:04.141Z,5.30
2023-05-07T10:48:06.980Z,5.70
2023-05-07T10:49:04.219Z,5.70
2023-05-07T10:50:04.204Z,5.50
2023-05-07T10:51:04.309Z,5.50
2023-05-07T10:52:04.224Z,5.40
2023-05-07T10:53:04.234Z,5.60
2023-05-07T10:54:04.254Z,5.70
2023-05-07T10:55:04.271Z,5.50
2023-05-07T10:56:04.391Z,5.50
2023-05-07T10:57:04.288Z,5.70
2023-05-07T10:58:04.437Z,5.40
2023-05-07T10:59:04.320Z,5.60
2023-05-07T11:00:04.342Z,5.30
2023-05-07T11:01:04.350Z,5.30
2023-05-07T11:02:04.579Z,5.60
2023-05-07T11:03:04.440Z,5.70
2023-05-07T11:04:04.406Z,5.70
2023-05-07T11:05:04.470Z,5.50
2023-05-07T11:06:04.426Z,5.80
2023-05-07T11:07:04.542Z,5.60
2023-05-07T11:08:04.860Z,5.90
2023-05-07T11:09:04.463Z,5.90
2023-05-07T11:10:04.489Z,5.70
2023-05-07T11:11:04.500Z,5.50
2023-05-07T11:12:04.515Z,5.70
2023-05-07T11:13:04.720Z,5.70
2023-05-07T11:14:04.630Z,5.50
2023-05-07T11:15:04.569Z,5.40
2023-05-07T11:16:04.607Z,5.70
2023-05-07T11:17:04.589Z,5.80
2023-05-07T11:18:04.706Z,5.80
2023-05-07T11:19:04.706Z,5.80
2023-05-07T11:20:04.632Z,5.60
2023-05-07T11:21:04.639Z,5.90
2023-05-07T11:22:04.663Z,5.40
2023-05-07T11:23:04.668Z,5.40
2023-05-07T11:24:04.782Z,5.50
2023-05-07T11:25:04.705Z,5.90
2023-05-07T11:26:04.714Z,5.70
2023-05-07T11:27:04.727Z,6.20
2023-05-07T11:28:04.752Z,5.70
2023-05-07T11:29:04.865Z,5.90
2023-05-07T11:30:04.793Z,5.80
2023-05-07T11:31:04.797Z,5.60
2023-05-07T11:32:04.947Z,5.70
2023-05-07T11:33:04.877Z,5.60
2023-05-07T11:34:04.828Z,5.30
2023-05-07T11:35:04.950Z,5.70
2023-05-07T11:36:04.865Z,5.70
2023-05-07T11:37:04.880Z,5.50
2023-05-07T11:38:04.888Z,5.70
2023-05-07T11:39:04.908Z,5.90
2023-05-07T11:40:05.029Z,5.50
2023-05-07T11:41:04.930Z,5.80
2023-05-07T11:42:04.947Z,5.60
2023-05-07T11:43:04.962Z,5.80
2023-05-07T11:44:04.976Z,5.70
2023-05-07T11:45:05.033Z,5.30
2023-05-07T11:46:05.240Z,6.00
2023-05-07T11:47:05.028Z,5.90
2023-05-07T11:48:05.059Z,5.70
2023-05-07T11:49:05.061Z,5.40
2023-05-07T11:50:05.073Z,5.90
2023-05-07T11:51:05.214Z,5.90
2023-05-07T11:52:06.666Z,5.80
2023-05-07T11:53:05.117Z,5.90
2023-05-07T11:54:05.121Z,6.00
2023-05-07T11:55:05.151Z,5.50
2023-05-07T11:56:05.161Z,5.50
2023-05-07T11:57:05.269Z,5.60
2023-05-07T11:58:05.187Z,5.70
2023-05-07T11:59:05.208Z,5.70
2023-05-07T12:00:05.219Z,5.60
2023-05-07T12:01:05.228Z,6.00
2023-05-07T12:02:05.297Z,5.40
2023-05-07T12:03:05.497Z,5.40
2023-05-07T12:04:05.662Z,5.60
2023-05-07T12:05:05.306Z,5.60
2023-05-07T12:06:05.300Z,6.30
2023-05-07T12:07:05.331Z,5.60
2023-05-07T12:08:05.436Z,5.90
2023-05-07T12:09:05.364Z,6.00
2023-05-07T12:10:05.366Z,5.70
2023-05-07T12:11:05.371Z,5.60
2023-05-07T12:12:05.402Z,5.50
2023-05-07T12:13:05.537Z,5.60
2023-05-07T12:14:07.717Z,5.70
2023-05-07T12:15:05.442Z,5.70
2023-05-07T12:16:05.445Z,5.60
2023-05-07T12:17:05.517Z,5.40
2023-05-07T12:18:05.541Z,6.10
2023-05-07T12:19:05.598Z,5.80
2023-05-07T12:20:05.515Z,5.60
2023-05-07T12:21:05.530Z,5.80
2023-05-07T12:22:05.545Z,5.80
2023-05-07T12:23:05.548Z,5.90
2023-05-07T12:24:05.669Z,5.70
2023-05-07T12:25:05.659Z,5.70
2023-05-07T12:26:07.443Z,6.10
2023-05-07T12:27:05.616Z,5.60
2023-05-07T12:28:05.630Z,5.60
2023-05-07T12:29:05.646Z,5.40
2023-05-07T12:30:05.760Z,5.80
2023-05-07T12:31:05.704Z,6.10
2023-05-07T12:32:07.231Z,5.90
2023-05-07T12:33:05.724Z,5.70
2023-05-07T12:34:05.736Z,5.80
2023-05-07T12:35:05.742Z,5.90
2023-05-07T12:36:05.852Z,5.90
2023-05-07T12:37:05.764Z,5.80
2023-05-07T12:38:05.779Z,5.70
2023-05-07T12:39:05.801Z,5.90
2023-05-07T12:40:05.804Z,6.10
2023-05-07T12:41:05.965Z,5.60
2023-05-07T12:42:05.844Z,5.80
2023-05-07T12:43:05.850Z,5.80
2023-05-07T12:44:05.882Z,5.70
2023-05-07T12:45:08.964Z,5.60
2023-05-07T12:46:06.069Z,5.70
2023-05-07T12:47:05.922Z,5.90
2023-05-07T12:48:05.981Z,6.30
2023-05-07T12:49:05.969Z,5.80
2023-05-07T12:50:05.977Z,6.00
2023-05-07T12:51:05.971Z,5.80
2023-05-07T12:52:06.082Z,6.00
2023-05-07T12:53:06.001Z,5.70
2023-05-07T12:54:06.025Z,5.80
2023-05-07T12:55:06.027Z,5.70
2023-05-07T12:56:06.042Z,5.40
2023-05-07T12:57:06.057Z,5.70
2023-05-07T12:58:06.173Z,5.80
2023-05-07T12:59:06.116Z,5.60
2023-05-07T13:00:06.150Z,5.90
2023-05-07T13:01:06.120Z,6.10
2023-05-07T13:02:06.305Z,6.00
2023-05-07T13:03:06.392Z,5.70
2023-05-07T13:04:06.240Z,5.90
2023-05-07T13:05:06.175Z,6.20
2023-05-07T13:06:06.225Z,6.30
2023-05-07T13:07:06.209Z,5.70
2023-05-07T13:08:06.215Z,6.10
2023-05-07T13:09:06.336Z,5.90
2023-05-07T13:10:06.412Z,5.70
2023-05-07T13:11:06.266Z,5.90
2023-05-07T13:12:06.270Z,6.00
2023-05-07T13:13:06.337Z,5.90
2023-05-07T13:14:06.305Z,5.90
2023-05-07T13:15:06.433Z,5.60
2023-05-07T13:16:06.407Z,5.60
2023-05-07T13:17:06.345Z,6.00
2023-05-07T13:18:06.403Z,5.90
2023-05-07T13:19:06.385Z,5.60